Terminal Aerodrome Forecast
Issued by NWS

Home | Current Version | Previous Version | Text Only | Print | Product List | Glossary On
Versions: 1 2 3 4 5 6 7 8 9 10 11 12 13 14 15 16 17 18 19 20
000
FTUS43 KDVN 241100 AAA
TAFCID
TAF AMD
KCID 241102Z 2411/2506 33008KT 6SM BR OVC006
     FM241400 32011KT 6SM BR VCSH SCT006 OVC015
     FM241700 31014G21KT P6SM VCSH OVC015
     FM242200 31012KT P6SM BKN025=

USA.gov is the U.S. government's official web portal to all federal, state and local government web resources and services.